createdAt,value
2023-03-06T00:02:27.681Z,1.22
2023-03-06T00:04:57.684Z,1.17
2023-03-06T00:07:27.737Z,1.06
2023-03-06T00:09:57.752Z,1.47
2023-03-06T00:12:27.764Z,1.21
2023-03-06T00:14:57.808Z,1.57
2023-03-06T00:17:27.818Z,1.58
2023-03-06T00:19:57.854Z,1.67
2023-03-06T00:22:27.875Z,1.79
2023-03-06T00:24:57.877Z,1.69
2023-03-06T00:27:27.911Z,1.67
2023-03-06T00:29:57.940Z,1.64
2023-03-06T00:32:27.998Z,1.8
2023-03-06T00:34:57.980Z,1.39
2023-03-06T00:37:27.999Z,1.51
2023-03-06T00:39:58.026Z,1.86
2023-03-06T00:42:28.055Z,1.9
2023-03-06T00:44:58.080Z,1.98
2023-03-06T00:47:28.097Z,1.8
2023-03-06T00:49:58.141Z,1.69
2023-03-06T00:52:28.165Z,1.42
2023-03-06T00:54:58.147Z,2.11
2023-03-06T00:57:28.206Z,1.85
2023-03-06T00:59:58.221Z,1.98
2023-03-06T01:02:28.376Z,1.46
2023-03-06T01:04:58.258Z,1.38
2023-03-06T01:07:28.301Z,1.43
2023-03-06T01:09:58.337Z,1.13
2023-03-06T01:12:28.347Z,1.24
2023-03-06T01:14:58.351Z,1.05
2023-03-06T01:17:28.388Z,1.06
2023-03-06T01:19:58.422Z,1.32
2023-03-06T01:24:58.456Z,1.93
2023-03-06T01:27:28.478Z,1.41
2023-03-06T01:29:58.509Z,1.94
2023-03-06T01:32:28.590Z,1.85
2023-03-06T01:34:58.539Z,1.66
2023-03-06T01:37:28.635Z,1.34
2023-03-06T01:39:58.586Z,1.63
2023-03-06T01:42:28.626Z,1.61
2023-03-06T01:44:58.640Z,1.32
2023-03-06T01:47:28.682Z,1.15
2023-03-06T01:49:58.697Z,1.15
2023-03-06T01:52:28.730Z,1.19
2023-03-06T01:54:58.749Z,1.51
2023-03-06T01:57:28.798Z,1.51
2023-03-06T01:59:58.801Z,1.37
2023-03-06T02:02:28.869Z,1.22
2023-03-06T02:04:58.883Z,1.3
2023-03-06T02:09:58.933Z,1.67
2023-03-06T02:12:28.911Z,1.74
2023-03-06T02:14:58.924Z,1.55
2023-03-06T02:17:28.975Z,1.6
2023-03-06T02:19:58.991Z,1.49
2023-03-06T02:22:29.011Z,1.52
2023-03-06T02:24:59.036Z,2.41
2023-03-06T02:27:29.083Z,2.57
2023-03-06T02:29:59.082Z,2.41
2023-03-06T02:32:29.142Z,1.88
2023-03-06T02:34:59.156Z,1.92
2023-03-06T02:39:59.212Z,1.92
2023-03-06T02:42:29.239Z,1.78
2023-03-06T02:47:29.258Z,1.46
2023-03-06T02:52:29.305Z,2.15
2023-03-06T02:54:59.351Z,1.65
2023-03-06T02:59:59.380Z,1.58
2023-03-06T03:02:29.393Z,1.54
2023-03-06T03:04:59.411Z,1.37
2023-03-06T03:09:59.568Z,1.76
2023-03-06T03:12:29.490Z,2.03
2023-03-06T03:14:59.495Z,2.09
2023-03-06T03:17:29.518Z,1.65
2023-03-06T03:19:59.561Z,2.23
2023-03-06T03:22:29.586Z,2.11
2023-03-06T03:24:59.611Z,2.28
2023-03-06T03:27:29.628Z,3.25
2023-03-06T03:29:59.673Z,3.05
2023-03-06T03:32:29.703Z,2.37
2023-03-06T03:34:59.706Z,2.65
2023-03-06T03:37:29.737Z,2.99
2023-03-06T03:39:59.740Z,3.1
2023-03-06T03:42:29.762Z,2.73
2023-03-06T03:44:59.807Z,2.91
2023-03-06T03:47:29.824Z,3.66
2023-03-06T03:49:59.873Z,4.57
2023-03-06T03:52:29.883Z,3.44
2023-03-06T03:54:59.897Z,4.53
2023-03-06T03:57:29.923Z,3.45
2023-03-06T03:59:59.955Z,3.62
2023-03-06T04:05:00.046Z,3.81
2023-03-06T04:07:30.029Z,3.7
2023-03-06T04:10:00.047Z,3
2023-03-06T04:12:30.064Z,3.9
2023-03-06T04:17:30.110Z,3.78
2023-03-06T04:20:00.150Z,3.76
2023-03-06T04:22:30.150Z,4.2
2023-03-06T04:25:00.195Z,4.37
2023-03-06T04:27:30.204Z,4.6
2023-03-06T04:30:00.340Z,4.97
2023-03-06T04:32:30.289Z,3.62
2023-03-06T04:35:00.303Z,3.25
2023-03-06T04:37:30.301Z,3.79
2023-03-06T04:40:00.326Z,3.71
2023-03-06T04:45:00.382Z,3.43
2023-03-06T04:47:30.385Z,3.95
2023-03-06T04:50:00.455Z,3.02
2023-03-06T04:52:30.430Z,3.01
2023-03-06T04:55:00.499Z,2.91
2023-03-06T04:57:30.499Z,3.56
2023-03-06T05:00:00.523Z,2.71
2023-03-06T05:02:30.602Z,2.28
2023-03-06T05:05:00.567Z,3.91
2023-03-06T05:10:00.604Z,4.02
2023-03-06T05:15:00.660Z,3.45
2023-03-06T05:17:30.672Z,3.63
2023-03-06T05:20:00.720Z,3.88
2023-03-06T05:25:00.740Z,3.71
2023-03-06T05:27:30.771Z,3.79
2023-03-06T05:30:00.806Z,3.92
2023-03-06T05:32:30.881Z,3.14
2023-03-06T05:35:00.884Z,4.3
2023-03-06T05:37:30.885Z,4.09
2023-03-06T05:40:00.914Z,3.93
2023-03-06T05:42:30.920Z,3.6
2023-03-06T05:45:00.954Z,4.9
2023-03-06T05:47:30.970Z,3.65
2023-03-06T05:50:01.053Z,2.96
2023-03-06T05:52:31.005Z,2.82
2023-03-06T05:55:01.044Z,2.69
2023-03-06T05:57:31.080Z,3.47
2023-03-06T06:00:01.113Z,3.4
2023-03-06T06:02:31.157Z,3.7
2023-03-06T06:05:01.144Z,3.75
2023-03-06T06:07:31.143Z,3.63
2023-03-06T06:10:03.541Z,2.75
2023-03-06T06:15:01.235Z,2.61
2023-03-06T06:17:31.236Z,2.99
2023-03-06T06:20:01.299Z,2.59
2023-03-06T06:25:01.347Z,2.91
2023-03-06T06:27:31.346Z,2.58
2023-03-06T06:32:31.460Z,3
2023-03-06T06:35:01.424Z,3.51
2023-03-06T06:40:01.472Z,2.77
2023-03-06T06:42:38.076Z,3.21
2023-03-06T06:45:01.547Z,3.28
2023-03-06T06:47:31.609Z,3.2
2023-03-06T06:50:01.559Z,3.29
2023-03-06T06:52:31.578Z,3.87
2023-03-06T06:57:31.624Z,2.79
2023-03-06T07:02:31.680Z,1.94
2023-03-06T07:05:05.027Z,2.05
2023-03-06T07:07:31.756Z,1.56
2023-03-06T07:12:31.778Z,2.42
2023-03-06T07:15:01.819Z,1.9
2023-03-06T07:17:31.823Z,2.29
2023-03-06T07:20:01.876Z,2.18
2023-03-06T07:22:41.419Z,1.59
2023-03-06T07:27:31.979Z,0.83
2023-03-06T07:30:01.971Z,0.79
2023-03-06T07:32:31.993Z,0.84
2023-03-06T07:35:18.941Z,0.86
2023-03-06T07:37:32.012Z,1.22
2023-03-06T07:40:02.062Z,1.23
2023-03-06T07:42:32.071Z,1.18
2023-03-06T07:45:02.102Z,0.87
2023-03-06T07:47:32.106Z,0.82
2023-03-06T07:50:02.210Z,1.06
2023-03-06T07:55:02.213Z,0.68
2023-03-06T07:57:32.198Z,0.87
2023-03-06T08:00:02.292Z,0.84
2023-03-06T08:05:02.295Z,0.56
2023-03-06T08:07:32.319Z,0.78
2023-03-06T08:10:02.342Z,0.68
2023-03-06T08:17:32.402Z,0.43
2023-03-06T08:20:02.429Z,0.54
2023-03-06T08:22:32.450Z,0.54
2023-03-06T08:25:02.502Z,0.56
2023-03-06T08:27:32.478Z,0.44
2023-03-06T08:30:02.563Z,0.53
2023-03-06T08:32:32.587Z,0.77
2023-03-06T08:35:02.601Z,0.73
2023-03-06T08:37:32.613Z,0.58
2023-03-06T08:45:02.662Z,0.51
2023-03-06T08:47:32.673Z,0.4
2023-03-06T08:50:02.692Z,0.49
2023-03-06T08:55:02.782Z,0.41
2023-03-06T08:57:32.756Z,0.39
2023-03-06T09:02:32.875Z,0.44
2023-03-06T09:07:32.869Z,0.54
2023-03-06T09:10:02.893Z,0.52
2023-03-06T09:15:02.933Z,0.49
2023-03-06T09:17:32.974Z,0.42
2023-03-06T09:25:03.077Z,0.65
2023-03-06T09:27:33.052Z,0.64
2023-03-06T09:32:33.223Z,0.54
2023-03-06T09:37:33.154Z,0.54
2023-03-06T09:42:33.784Z,0.43
2023-03-06T09:52:33.287Z,0.37
2023-03-06T10:00:04.580Z,0.45
2023-03-06T10:02:33.491Z,0.39
2023-03-06T10:07:33.438Z,0.58
2023-03-06T10:12:33.480Z,0.74
2023-03-06T10:17:34.276Z,0.73
2023-03-06T10:20:03.552Z,0.58
2023-03-06T10:30:04.286Z,0.55
2023-03-06T10:32:46.264Z,0.48
2023-03-06T10:35:03.696Z,0.6
2023-03-06T10:40:03.731Z,0.55
2023-03-06T10:42:33.768Z,0.8
2023-03-06T10:47:33.851Z,0.73
2023-03-06T10:52:33.852Z,0.48
2023-03-06T10:57:33.894Z,0.4
2023-03-06T11:00:03.959Z,0.44
2023-03-06T11:02:33.949Z,0.41
2023-03-06T11:05:03.975Z,0.25
2023-03-06T11:07:33.982Z,0.3
2023-03-06T11:12:34.041Z,0.24
2023-03-06T11:15:04.078Z,0.25
2023-03-06T11:20:04.111Z,0.26
2023-03-06T11:25:04.150Z,0.29
2023-03-06T11:27:34.180Z,0.27
2023-03-06T11:30:04.207Z,0.34
2023-03-06T11:37:34.262Z,0.46
2023-03-06T11:40:04.309Z,0.38
2023-03-06T11:52:34.414Z,0.33
2023-03-06T11:57:34.466Z,0.31
2023-03-06T12:00:04.488Z,0.33
2023-03-06T12:02:34.532Z,0.36
2023-03-06T12:05:04.552Z,0.42
2023-03-06T12:07:34.550Z,0.53
2023-03-06T12:15:04.637Z,0.4
2023-03-06T12:20:04.687Z,0.34
2023-03-06T12:22:34.700Z,0.41
2023-03-06T12:30:04.775Z,0.89
2023-03-06T12:32:34.840Z,0.61
2023-03-06T12:35:06.271Z,0.54
2023-03-06T12:37:34.840Z,0.4
2023-03-06T12:47:34.940Z,0.55
2023-03-06T12:57:35.034Z,0.46
2023-03-06T13:00:05.062Z,0.3
2023-03-06T13:02:35.107Z,0.39
2023-03-06T13:07:35.142Z,0.4
2023-03-06T13:10:05.158Z,0.47
2023-03-06T13:15:05.182Z,0.46
2023-03-06T13:17:35.257Z,0.37
2023-03-06T13:20:05.258Z,0.35
2023-03-06T13:22:35.258Z,0.75
2023-03-06T13:25:08.445Z,0.73
2023-03-06T13:27:35.308Z,0.59
2023-03-06T13:30:05.349Z,0.54
2023-03-06T13:32:35.381Z,0.53
2023-03-06T13:35:05.404Z,0.63
2023-03-06T13:42:35.446Z,0.7
2023-03-06T13:45:05.459Z,0.71
2023-03-06T13:47:48.869Z,0.59
2023-03-06T13:57:35.590Z,0.76
2023-03-06T14:02:35.655Z,0.77
2023-03-06T14:07:35.672Z,0.62
2023-03-06T14:10:05.725Z,0.66
2023-03-06T14:15:05.770Z,0.95
2023-03-06T14:42:36.025Z,1.48
2023-03-06T14:45:06.036Z,1.52
2023-03-06T14:47:36.061Z,1.35
2023-03-06T14:52:36.120Z,1.84
2023-03-06T14:55:06.126Z,2.21
2023-03-06T14:57:36.161Z,1.97
2023-03-06T15:00:06.174Z,1.89
2023-03-06T15:02:36.227Z,2.22
2023-03-06T15:05:06.264Z,2.19
2023-03-06T15:07:36.255Z,2.23
2023-03-06T15:10:06.294Z,2.44
2023-03-06T15:12:36.294Z,2.53
2023-03-06T15:15:06.308Z,2.33
2023-03-06T15:17:36.341Z,2.02
2023-03-06T15:20:06.420Z,1.61
2023-03-06T15:22:36.398Z,2.21
2023-03-06T15:25:06.410Z,2.3
2023-03-06T15:27:36.437Z,2.01
2023-03-06T15:30:06.510Z,2.39
2023-03-06T15:32:36.543Z,2.46
2023-03-06T15:35:06.528Z,3.11
2023-03-06T15:37:36.519Z,2.5
2023-03-06T15:40:06.560Z,2.99
2023-03-06T15:42:36.582Z,2.8
2023-03-06T15:45:06.608Z,2.77
2023-03-06T15:47:36.631Z,2.53
2023-03-06T15:50:06.634Z,2.28
2023-03-06T15:52:36.668Z,3.05
2023-03-06T15:55:06.687Z,3.15
2023-03-06T16:00:10.776Z,3.14
2023-03-06T16:02:36.770Z,2.7
2023-03-06T16:05:06.797Z,2.6
2023-03-06T16:07:36.805Z,2.65
2023-03-06T16:10:08.515Z,2.9
2023-03-06T16:12:36.858Z,2.58
2023-03-06T16:15:06.899Z,2.75
2023-03-06T16:17:36.908Z,2.51
2023-03-06T16:20:06.933Z,2.83
2023-03-06T16:22:36.939Z,3.19
2023-03-06T16:25:06.970Z,2.93
2023-03-06T16:27:37.008Z,2.71
2023-03-06T16:30:07.023Z,2.21
2023-03-06T16:32:37.124Z,2.31
2023-03-06T16:35:07.068Z,2.56
2023-03-06T16:40:09.247Z,1.85
2023-03-06T16:42:37.156Z,2.07
2023-03-06T16:47:37.175Z,2.4
2023-03-06T16:50:08.851Z,2.06
2023-03-06T16:52:37.225Z,2.34
2023-03-06T16:55:07.254Z,2.89
2023-03-06T16:57:37.272Z,2.77
2023-03-06T17:00:07.307Z,3.53
2023-03-06T17:02:37.380Z,2.51
2023-03-06T17:05:07.364Z,2.88
2023-03-06T17:07:37.375Z,3.06
2023-03-06T17:10:07.407Z,2.92
2023-03-06T17:12:37.437Z,2.94
2023-03-06T17:15:07.467Z,2.83
2023-03-06T17:17:37.469Z,2.38
2023-03-06T17:20:08.389Z,4.34
2023-03-06T17:25:07.549Z,3.49
2023-03-06T17:27:37.583Z,4.85
2023-03-06T17:30:08.646Z,4.41
2023-03-06T17:32:37.698Z,4.88
2023-03-06T17:35:07.634Z,4.45
2023-03-06T17:37:37.780Z,4.32
2023-03-06T17:40:07.702Z,4.68
2023-03-06T17:42:37.727Z,4.52
2023-03-06T17:45:07.734Z,4.65
2023-03-06T17:47:37.758Z,5.57
2023-03-06T17:50:07.788Z,5.51
2023-03-06T17:52:37.799Z,5.28
2023-03-06T17:55:07.836Z,5.11
2023-03-06T18:00:07.894Z,5.63
2023-03-06T18:02:37.903Z,6.4
2023-03-06T18:07:37.965Z,6.58
2023-03-06T18:10:09.162Z,6.33
2023-03-06T18:12:37.995Z,6.45
2023-03-06T18:15:08.040Z,6.31
2023-03-06T18:17:38.020Z,7.09
2023-03-06T18:20:08.060Z,7.24
2023-03-06T18:22:38.083Z,7.13
2023-03-06T18:25:08.146Z,7.85
2023-03-06T18:27:38.138Z,5.35
2023-03-06T18:30:09.231Z,7.11
2023-03-06T18:32:38.309Z,8.24
2023-03-06T18:35:08.188Z,7.89
2023-03-06T18:40:08.239Z,6.47
2023-03-06T18:45:08.352Z,7.74
2023-03-06T18:47:38.352Z,7.03
2023-03-06T18:50:08.511Z,6.46
2023-03-06T18:52:38.378Z,6.74
2023-03-06T18:55:08.410Z,6.98
2023-03-06T18:57:38.403Z,7.54
2023-03-06T19:02:38.486Z,7.74
2023-03-06T19:05:08.520Z,8.58
2023-03-06T19:07:38.518Z,9.11
2023-03-06T19:10:09.850Z,8.29
2023-03-06T19:12:38.590Z,8.62
2023-03-06T19:17:38.620Z,6.54
2023-03-06T19:20:09.436Z,6.01
2023-03-06T19:22:38.650Z,7.74
2023-03-06T19:25:08.702Z,7.33
2023-03-06T19:30:09.977Z,6.79
2023-03-06T19:32:38.851Z,7.65
2023-03-06T19:35:08.829Z,7.53
2023-03-06T19:40:09.687Z,8.37
2023-03-06T19:45:08.892Z,8.47
2023-03-06T19:47:38.892Z,7.35
2023-03-06T19:52:39.013Z,7.74
2023-03-06T19:55:08.989Z,6.75
2023-03-06T19:57:39.002Z,7.01
2023-03-06T20:00:10.400Z,6.61
2023-03-06T20:02:39.052Z,6.6
2023-03-06T20:07:39.094Z,6.4
2023-03-06T20:10:09.114Z,8.12
2023-03-06T20:12:39.128Z,7.66
2023-03-06T20:15:09.328Z,7.6
2023-03-06T20:20:09.228Z,7.1
2023-03-06T20:22:39.227Z,8.43
2023-03-06T20:27:39.268Z,6.22
2023-03-06T20:30:10.055Z,6.41
2023-03-06T20:32:39.319Z,6.78
2023-03-06T20:35:09.384Z,7.2
2023-03-06T20:40:10.234Z,7.47
2023-03-06T20:42:39.411Z,7.49
2023-03-06T20:47:39.474Z,7.7
2023-03-06T20:50:10.235Z,6.61
2023-03-06T20:52:39.514Z,5.45
2023-03-06T20:57:39.548Z,5.95
2023-03-06T21:00:10.386Z,7.14
2023-03-06T21:02:39.606Z,7.82
2023-03-06T21:05:09.707Z,6.33
2023-03-06T21:10:10.098Z,5.94
2023-03-06T21:17:39.734Z,6.37
2023-03-06T21:20:09.783Z,8.12
2023-03-06T21:22:39.795Z,6.97
2023-03-06T21:27:39.830Z,6.37
2023-03-06T21:32:39.967Z,6.81
2023-03-06T21:35:09.920Z,5.89
2023-03-06T21:37:39.940Z,6.03
2023-03-06T21:40:10.173Z,6.19
2023-03-06T21:45:10.003Z,5.68
2023-03-06T21:47:40.030Z,7.08
2023-03-06T21:55:10.165Z,5.61
2023-03-06T22:00:11.418Z,6.32
2023-03-06T22:02:40.175Z,6.21
2023-03-06T22:05:10.195Z,6.15
2023-03-06T22:07:40.220Z,5.88
2023-03-06T22:10:10.880Z,5.27
2023-03-06T22:12:40.262Z,7.1
2023-03-06T22:15:10.305Z,7.67
2023-03-06T22:20:10.364Z,7.22
2023-03-06T22:25:10.389Z,6.08
2023-03-06T22:27:40.413Z,4.92
2023-03-06T22:35:10.512Z,6.06
2023-03-06T22:45:10.584Z,4.68
2023-03-06T22:50:10.643Z,4.05
2023-03-06T22:52:40.630Z,4.61
2023-03-06T22:57:40.713Z,5.06
2023-03-06T23:02:40.730Z,3.59
2023-03-06T23:05:10.761Z,3.12
2023-03-06T23:07:40.777Z,2.85
2023-03-06T23:12:40.835Z,3.43
2023-03-06T23:15:10.981Z,3.87
2023-03-06T23:17:40.862Z,3.91
2023-03-06T23:20:10.892Z,3.45
2023-03-06T23:22:40.935Z,3.78
2023-03-06T23:25:10.978Z,4
2023-03-06T23:27:40.967Z,4.25
2023-03-06T23:30:10.998Z,3.78
2023-03-06T23:32:41.047Z,2.92
2023-03-06T23:35:11.105Z,3.72
2023-03-06T23:37:41.084Z,3.3
2023-03-06T23:42:41.123Z,3.68
2023-03-06T23:45:11.126Z,2.69
2023-03-06T23:55:11.249Z,3
2023-03-06T23:57:41.251Z,3.57
